Hauptseite
METAR-TAF:

METAR-TAF

Flughäfen :

Flughafen Xi’an-Xianyang

Xi’an, China

Breite: 34-26N, Länge: 108-45E, Höhe: 479 m

Beobachtung

Neuester Wetterbericht von vor 35 Minuten, um 18:00 UTC
Wind 6 kt aus Nord/Nordost
Temperatur 22°C
Luftfeuchtigkeit 53%
Luftdruck 1009 hPa
Sichtweite 10 km oder mehr
keine Wolken unter 1500 m und keine Kumulonimbus oder Gewitterwolken

METAR: ZLXY 221800Z 03003MPS CAVOK 22/12 Q1009 NOSIG

Zeit: 02:35 (18:35 UTC)

Prognose

Neuester Wetterbericht von vor 3 Stunden und 32 Minuten, um 15:03 UTC
Gültige Prognose vom 22 um 18 UTC bis 23 um 18 UTC
Wind 6 kt aus Ost/Nordost
Sichtweite: 6000 m

TAF: ZLXY 221503Z 2218/2318 06003MPS 6000 NSC TX36/2307Z TN19/2221Z

Wetterbeobachtungen und Prognosen von mehr als 4000 Flughäfen (METAR und TAF Bericht).

Die verfügbaren Stationen werden durch gelbe und rote Markierungen auf der Karte dargestellt.

Führen Sie die Maus auf sie, um den Namen der Station zu sehen.

Darauf klicken, um die Beobachtung von Wetterbeobachtungen und Prognosen zu sehen.

Um die Karte zu ändern : klicken Sie auf den grünen Tasten mit einem schwarzen Kreuz Zum Vergrößern, auf den grünen Button mit einem Gedankenstrich zu verkleinern, oder auf die grünen Pfeile für benachbarte Karten.


METAR-TAF: